Etusivu
METAR-TAF:

METAR-TAF

Lentoasemat :

Gloucester, Englanti

Leveyspiiri: 51-54N, Pituuspiiri: 002-10W, korkeus merenpinnasta: 29 m

Tämänhetkinen sää

Tämä raportti tehtiin 7 tuntia ja 56 minuuttia sitten, kello 19.20 UTC
Tuuli 16 kn idästä/kaakosta
Lämpötila 9°C
Kosteus 87%
Ilmanpaine 991 hPa
Näkyvyys: 9000 m
Muutamia pilviä 1500 ft:n korkeudessa
Hajonneita pilviä 3900 ft:n korkeudessa

METAR: EGBJ 221920Z 12016KT 9000 FEW015 BKN039 09/07 Q0991

Aika: 03:16 (03:16 UTC)

Sääennuste

Tämä raportti tehtiin 9 tuntia ja 18 minuuttia sitten, kello 17.58 UTC
Ennuste voimassa 22. päivästä klo 18 UTC - 22. päivään klo 20 UTC
Tuuli 9 kn idästä/kaakosta
Näkyvyys 10 km tai enemmän
Hajonneita pilviä 1200 ft:n korkeudessa
Todennäköisyys 30% :
Ajoittain
22. päivästä klo 18 UTC - 22. päivään klo 20 UTC
Näkyvyys: 9000 m
Hajanaisia pilviä 1200 ft:n korkeudessa

TAF: EGBJ 221758Z 2218/2220 12009KT 9999 BKN012 PROB30 TEMPO 2218/2220 9000 SCT012

Säähavainnot ja -ennusteet yli 4000 lentoasemalta (METAR- ja TAF-raportit).

Käytössä olevat sääasemat on merkitty karttaan keltaisilla ja punaisilla pisteillä.

Aseta hiiri pisteen päälle nähdäksesi sääaseman nimen.

Klikkaa sitten nähdäksesi säähavainnot ja -ennusteet.

Kartan vaihtaminen: klikkaa mustalla rastilla varustettuja vihreitä pisteitä, niin voit zoomata sisään; viivalla varustettua vihreää pistettä, niin voit zoomata ulos tai vihreitä nuolia, niin pääset viereisille kartoille.


METAR-TAF: